Time;durP1;ratioP1;P1;durP2;ratioP2;P2;SDS_P1;SDS_P2;PMS_P1;PMS_P2;Temp;Humidity;BMP_temperature;BMP_pressure;BME280_temperature;BME280_humidity;BME280_pressure;Samples;Min_cycle;Max_cycle;Signal;HPM_P1;HPM_P2
2023/04/27 00:01:25;;;;;;;3.65;3.10;;;;;;;;;;4903545;29;20044;-69
2023/04/27 00:03:52;;;;;;;5.93;3.45;;;;;;;;;;4903628;29;20449;-69
2023/04/27 00:06:18;;;;;;;4.90;3.50;;;;;;;;;;4903305;29;20130;-69
2023/04/27 00:08:44;;;;;;;4.05;3.15;;;;;;;;;;4887886;29;20080;-69
2023/04/27 00:11:10;;;;;;;7.60;3.60;;;;;;;;;;4920349;29;20551;-69
2023/04/27 00:13:36;;;;;;;7.85;3.42;;;;;;;;;;4903246;29;20524;-69
2023/04/27 00:16:02;;;;;;;5.75;3.13;;;;;;;;;;4920255;29;20066;-69
2023/04/27 00:18:29;;;;;;;4.93;3.83;;;5.40;99.90;;;;;;4903245;29;20044;-69
2023/04/27 00:20:56;;;;;;;5.78;4.20;;;;;;;;;;4903037;29;20405;-69
2023/04/27 00:23:22;;;;;;;5.97;4.35;;;;;;;;;;4919803;29;20056;-69
2023/04/27 00:25:48;;;;;;;8.88;4.47;;;;;;;;;;4903236;29;20051;-69
2023/04/27 00:28:14;;;;;;;4.72;3.90;;;;;;;;;;4887437;29;20123;-69
2023/04/27 00:30:40;;;;;;;8.27;4.43;;;;;;;;;;4919997;29;20423;-69
2023/04/27 00:33:07;;;;;;;8.35;4.60;;;;;;;;;;4920053;29;20044;-69
2023/04/27 00:35:33;;;;;;;7.10;4.65;;;;;;;;;;4901998;29;20103;-69
2023/04/27 00:37:59;;;;;;;8.27;4.57;;;;;;;;;;4902742;29;20051;-69
2023/04/27 00:40:25;;;;;;;12.45;4.68;;;;;;;;;;4902730;29;20072;-69
2023/04/27 00:42:51;;;;;;;7.20;4.63;;;;;;;;;;4903347;29;20055;-69
2023/04/27 00:45:17;;;;;;;9.35;4.85;;;;;;;;;;4919496;29;20048;-68
2023/04/27 00:47:43;;;;;;;8.48;4.57;;;;;;;;;;4902905;29;20119;-68
2023/04/27 00:50:10;;;;;;;8.32;4.40;;;;;;;;;;4902705;29;20370;-68
2023/04/27 00:52:37;;;;;;;10.93;4.60;;;;;;;;;;4902582;29;20045;-68
2023/04/27 00:55:04;;;;;;;9.45;4.75;;;5.50;99.90;;;;;;4919356;29;20051;-68
2023/04/27 00:57:30;;;;;;;9.60;4.88;;;;;;;;;;4902485;29;20044;-68
2023/04/27 00:59:57;;;;;;;7.07;4.57;;;;;;;;;;4902298;29;20044;-69
2023/04/27 01:02:23;;;;;;;9.50;4.70;;;;;;;;;;4886990;29;20048;-69
2023/04/27 01:04:49;;;;;;;6.88;4.35;;;;;;;;;;4919176;29;20059;-69
2023/04/27 01:07:16;;;;;;;9.13;4.75;;;5.20;99.90;;;;;;4871678;29;20075;-69
2023/04/27 01:09:42;;;;;;;11.82;4.97;;;;;;;;;;4902464;29;20052;-68
2023/04/27 01:12:08;;;;;;;6.75;4.38;;;;;;;;;;4902192;29;20084;-69
2023/04/27 01:14:36;;;;;;;8.32;4.75;;;4.90;99.90;;;;;;4902246;29;20052;-68
2023/04/27 01:17:02;;;;;;;7.25;4.70;;;;;;;;;;4919635;29;20127;-68
2023/04/27 01:19:28;;;;;;;8.10;4.65;;;;;;;;;;4886452;29;20048;-69
2023/04/27 01:21:54;;;;;;;6.93;4.30;;;;;;;;;;4902205;29;20127;-68
2023/04/27 01:24:20;;;;;;;7.95;4.82;;;;;;;;;;4901896;29;20051;-67
2023/04/27 01:26:46;;;;;;;5.85;4.25;;;;;;;;;;4902159;29;20092;-68
2023/04/27 01:29:12;;;;;;;6.25;4.50;;;;;;;;;;4901878;29;20048;-68
2023/04/27 01:31:38;;;;;;;9.85;4.53;;;;;;;;;;4902283;29;20101;-68
2023/04/27 01:34:04;;;;;;;9.40;4.70;;;;;;;;;;4901775;29;20083;-68
2023/04/27 01:36:31;;;;;;;11.30;4.65;;;;;;;;;;4886093;29;20126;-68
2023/04/27 01:38:57;;;;;;;5.45;4.50;;;;;;;;;;4901949;29;20244;-68
2023/04/27 01:41:23;;;;;;;9.13;4.53;;;;;;;;;;4918625;29;20076;-68
2023/04/27 01:43:49;;;;;;;6.13;4.78;;;;;;;;;;4901699;29;20127;-68
2023/04/27 01:46:15;;;;;;;5.40;4.28;;;;;;;;;;4901713;29;20070;-68
2023/04/27 01:48:41;;;;;;;11.52;4.15;;;;;;;;;;4901814;29;20468;-68
2023/04/27 01:51:07;;;;;;;6.47;4.03;;;;;;;;;;4901723;29;20040;-68
2023/04/27 01:53:33;;;;;;;6.05;4.30;;;;;;;;;;4901470;29;20565;-68
2023/04/27 01:56:00;;;;;;;7.72;3.92;;;;;;;;;;4902006;29;20075;-68
2023/04/27 01:58:26;;;;;;;8.27;4.13;;;;;;;;;;4901368;29;20044;-68
2023/04/27 02:00:52;;;;;;;7.75;4.22;;;;;;;;;;4918431;29;20481;-68
2023/04/27 02:03:18;;;;;;;7.03;3.83;;;;;;;;;;4901286;29;20051;-68
2023/04/27 02:05:46;;;;;;;6.70;4.00;;;;;;;;;;4901222;29;20099;-68
2023/04/27 02:08:12;;;;;;;7.65;4.10;;;;;;;;;;4901153;29;20043;-68
2023/04/27 02:10:38;;;;;;;7.05;4.78;;;;;;;;;;4885858;29;20095;-68
2023/04/27 02:13:04;;;;;;;7.70;4.10;;;;;;;;;;4918223;29;20048;-68
2023/04/27 02:15:30;;;;;;;8.50;4.20;;;;;;;;;;4917892;29;20044;-68
2023/04/27 02:17:57;;;;;;;8.13;4.40;;;;;;;;;;4885360;29;20051;-68
2023/04/27 02:20:23;;;;;;;11.68;4.00;;;;;;;;;;4900902;29;20564;-68
2023/04/27 02:22:49;;;;;;;5.45;3.92;;;;;;;;;;4885300;29;20091;-68
2023/04/27 02:25:15;;;;;;;9.20;4.00;;;;;;;;;;4918033;29;20056;-68
2023/04/27 02:27:42;;;;;;;6.22;4.18;;;;;;;;;;4900862;29;20048;-68
2023/04/27 02:30:10;;;;;;;9.48;3.80;;;5.20;99.90;;;;;;4900923;29;20064;-68
2023/04/27 02:32:36;;;;;;;7.63;4.22;;;4.40;99.90;;;;;;4917846;29;20054;-68
2023/04/27 02:35:02;;;;;;;5.30;3.65;;;6.20;99.90;;;;;;4900972;29;20130;-68
2023/04/27 02:37:29;;;;;;;9.32;3.60;;;;;;;;;;4900731;29;20127;-68
2023/04/27 02:39:55;;;;;;;7.78;4.22;;;;;;;;;;4901021;29;20047;-68
2023/04/27 02:42:21;;;;;;;7.93;4.03;;;;;;;;;;4900909;29;20401;-68
2023/04/27 02:44:47;;;;;;;6.15;4.10;;;;;;;;;;4917489;29;20107;-68
2023/04/27 02:47:13;;;;;;;9.73;4.10;;;;;;;;;;4884932;29;20043;-68
2023/04/27 02:49:39;;;;;;;6.25;3.60;;;;;;;;;;4900480;29;20603;-68
2023/04/27 02:52:06;;;;;;;5.53;4.03;;;;;;;;;;4917762;29;20042;-69
2023/04/27 02:54:33;;;;;;;9.85;4.28;;;;;;;;;;4884932;29;20051;-69
2023/04/27 02:56:59;;;;;;;9.15;3.97;;;;;;;;;;4900678;29;20040;-69
2023/04/27 02:59:25;;;;;;;10.65;4.20;;;;;;;;;;4884246;29;20040;-69
2023/04/27 03:01:51;;;;;;;6.18;3.50;;;;;;;;;;4900506;29;20044;-69
2023/04/27 03:04:17;;;;;;;4.85;3.67;;;;;;;;;;4900370;29;20040;-69
2023/04/27 03:06:44;;;;;;;5.82;3.88;;;;;;;;;;4917368;29;20076;-69
2023/04/27 03:09:11;;;;;;;4.90;4.18;;;;;;;;;;4900358;29;20127;-69
2023/04/27 03:11:37;;;;;;;5.43;3.83;;;;;;;;;;4917224;29;20052;-69
2023/04/27 03:14:04;;;;;;;5.53;3.80;;;;;;;;;;4900288;29;20123;-69
2023/04/27 03:16:33;;;;;;;5.25;3.70;;;;;;;;;;4900171;29;20095;-69
2023/04/27 03:19:00;;;;;;;7.35;3.47;;;;;;;;;;4884649;29;20044;-69
2023/04/27 03:21:27;;;;;;;4.05;3.38;;;;;;;;;;4900523;29;20394;-69
2023/04/27 03:23:53;;;;;;;6.72;3.35;;;;;;;;;;4916992;29;20048;-69
2023/04/27 03:26:20;;;;;;;9.93;3.38;;;;;;;;;;4884572;29;20044;-69
2023/04/27 03:28:46;;;;;;;5.80;3.90;;;;;;;;;;4900269;29;20040;-69
2023/04/27 03:31:13;;;;;;;6.90;3.80;;;5.30;99.90;;;;;;4917048;29;20505;-69
2023/04/27 03:33:40;;;;;;;5.00;3.15;;;;;;;;;;4917018;29;20060;-69
2023/04/27 03:36:07;;;;;;;7.32;4.15;;;6.10;99.90;;;;;;4900414;29;20131;-69
2023/04/27 03:38:34;;;;;;;5.55;3.88;;;;;;;;;;4884475;29;20055;-69
2023/04/27 03:41:00;;;;;;;7.32;3.90;;;;;;;;;;4917145;29;20103;-69
2023/04/27 03:43:26;;;;;;;11.02;4.15;;;;;;;;;;4900138;29;20477;-69
2023/04/27 03:45:52;;;;;;;6.50;3.95;;;;;;;;;;4900117;29;20127;-69
2023/04/27 03:48:19;;;;;;;7.25;4.20;;;;;;;;;;4900047;29;20126;-69
2023/04/27 03:50:46;;;;;;;9.05;4.00;;;;;;;;;;4900066;29;20481;-69
2023/04/27 03:53:12;;;;;;;5.32;3.90;;;5.00;99.90;;;;;;4900255;29;20036;-69
2023/04/27 03:55:39;;;;;;;6.88;4.57;;;;;;;;;;4900278;29;20056;-69
2023/04/27 03:58:05;;;;;;;5.68;4.22;;;;;;;;;;4899945;29;20501;-69
2023/04/27 04:00:31;;;;;;;8.93;4.90;;;;;;;;;;4899965;29;20055;-69
2023/04/27 04:02:57;;;;;;;7.22;4.30;;;;;;;;;;4884423;29;20040;-69
2023/04/27 04:05:23;;;;;;;9.88;4.47;;;;;;;;;;4884151;29;20048;-69
2023/04/27 04:07:50;;;;;;;9.77;4.95;;;;;;;;;;4899905;29;20055;-69
2023/04/27 04:10:16;;;;;;;5.40;4.40;;;;;;;;;;4901128;29;20072;-69
2023/04/27 04:12:42;;;;;;;7.65;4.75;;;;;;;;;;4903279;29;20051;-69
2023/04/27 04:15:08;;;;;;;8.13;4.72;;;;;;;;;;4920424;29;20048;-69
2023/04/27 04:17:34;;;;;;;8.73;4.38;;;;;;;;;;4903169;29;20153;-69
2023/04/27 04:20:00;;;;;;;10.13;4.68;;;;;;;;;;4903429;29;20103;-69
2023/04/27 04:22:27;;;;;;;9.48;4.43;;;;;;;;;;4903083;29;20072;-69
2023/04/27 04:24:53;;;;;;;9.18;4.53;;;;;;;;;;4919927;29;20052;-69
2023/04/27 04:27:19;;;;;;;6.32;4.88;;;;;;;;;;4903063;29;20044;-69
2023/04/27 04:29:45;;;;;;;6.05;4.93;;;;;;;;;;4903051;29;20067;-69
2023/04/27 04:32:16;;;;;;;9.52;4.82;;;;;;;;;;4903220;29;20052;-69
2023/04/27 04:34:42;;;;;;;7.32;4.50;;;;;;;;;;4888418;29;20545;-69
2023/04/27 04:37:08;;;;;;;8.88;5.35;;;;;;;;;;4919991;29;20160;-69
2023/04/27 04:39:34;;;;;;;7.70;4.95;;;;;;;;;;4902932;29;20047;-69
2023/04/27 04:42:00;;;;;;;11.95;5.65;;;;;;;;;;4903153;29;20408;-69
2023/04/27 04:44:26;;;;;;;8.65;4.78;;;;;;;;;;4902643;29;20503;-69
2023/04/27 04:46:54;;;;;;;7.15;4.63;;;;;;;;;;4902885;29;20477;-69
2023/04/27 04:49:20;;;;;;;7.28;5.10;;;;;;;;;;4902748;29;20503;-69
2023/04/27 04:51:46;;;;;;;7.70;4.88;;;;;;;;;;4919902;29;20486;-69
2023/04/27 04:54:12;;;;;;;10.98;5.78;;;;;;;;;;4902742;29;20130;-69
2023/04/27 04:56:38;;;;;;;11.88;5.57;;;;;;;;;;4902643;29;20056;-69
2023/04/27 04:59:05;;;;;;;10.95;5.28;;;;;;;;;;4919546;29;20040;-69
2023/04/27 05:01:31;;;;;;;9.70;5.45;;;;;;;;;;4902571;29;20477;-69
2023/04/27 05:03:57;;;;;;;8.13;5.60;;;;;;;;;;4902620;29;20481;-69
2023/04/27 05:06:23;;;;;;;9.75;5.10;;;;;;;;;;4919445;29;20044;-69
2023/04/27 05:08:49;;;;;;;5.90;4.47;;;;;;;;;;4902573;29;20496;-69
2023/04/27 05:11:15;;;;;;;9.13;5.20;;;;;;;;;;4902533;29;20043;-69
2023/04/27 05:13:42;;;;;;;11.98;4.82;;;;;;;;;;4902480;29;20107;-69
2023/04/27 05:16:08;;;;;;;6.88;4.60;;;;;;;;;;4902137;29;20126;-69
2023/04/27 05:18:35;;;;;;;8.68;5.00;;;;;;;;;;4902007;29;20052;-69
2023/04/27 05:21:01;;;;;;;6.97;4.60;;;;;;;;;;4886446;29;20036;-69
2023/04/27 05:23:27;;;;;;;7.15;4.55;;;;;;;;;;4918319;29;20107;-69
2023/04/27 05:25:53;;;;;;;6.97;4.78;;;;;;;;;;4902173;29;20505;-69
2023/04/27 05:28:19;;;;;;;7.22;4.38;;;;;;;;;;4901933;29;20044;-69
2023/04/27 05:30:45;;;;;;;7.05;4.85;;;;;;;;;;4901835;29;20127;-69
2023/04/27 05:33:11;;;;;;;6.85;4.50;;;;;;;;;;4901821;29;20051;-69
2023/04/27 05:35:37;;;;;;;7.40;4.32;;;;;;;;;;4901852;29;20052;-69
2023/04/27 05:38:03;;;;;;;6.43;3.83;;;;;;;;;;4918735;29;20044;-69
2023/04/27 05:40:30;;;;;;;8.50;4.55;;;;;;;;;;4901735;29;20104;-69
2023/04/27 05:42:56;;;;;;;7.40;4.30;;;;;;;;;;4901735;29;20511;-69
2023/04/27 05:45:22;;;;;;;6.47;3.97;;;;;;;;;;4885981;29;20123;-69
2023/04/27 05:47:48;;;;;;;7.82;4.07;;;;;;;;;;4918858;29;20054;-69
2023/04/27 05:50:14;;;;;;;6.68;4.25;;;;;;;;;;4901856;29;20438;-69
2023/04/27 05:52:40;;;;;;;7.72;4.68;;;;;;;;;;4901836;29;20044;-69
2023/04/27 05:55:07;;;;;;;6.90;4.30;;;5.60;99.90;;;;;;4901712;29;20111;-69
2023/04/27 05:57:33;;;;;;;6.25;4.53;;;;;;;;;;4901605;29;20100;-69
2023/04/27 06:00:00;;;;;;;6.82;4.47;;;;;;;;;;4901394;29;20044;-69
2023/04/27 06:02:26;;;;;;;9.02;5.47;;;;;;;;;;4901626;29;20441;-69
2023/04/27 06:04:52;;;;;;;8.00;4.95;;;;;;;;;;4918255;29;20485;-69
2023/04/27 06:07:18;;;;;;;8.00;4.70;;;;;;;;;;4901535;29;20441;-69
2023/04/27 06:09:44;;;;;;;9.77;4.78;;;;;;;;;;4901356;29;20036;-69
2023/04/27 06:12:10;;;;;;;8.43;4.53;;;;;;;;;;4901105;29;20100;-69
2023/04/27 06:14:37;;;;;;;5.82;4.03;;;;;;;;;;4901059;29;20044;-69
2023/04/27 06:17:03;;;;;;;7.28;3.88;;;6.00;99.90;;;;;;4900948;29;20400;-68
2023/04/27 06:19:30;;;;;;;6.03;3.50;;;;;;;;;;4901047;29;20112;-69
2023/04/27 06:21:56;;;;;;;7.75;4.00;;;;;;;;;;4900932;29;20086;-69
2023/04/27 06:24:22;;;;;;;4.68;3.63;;;;;;;;;;4900838;29;20051;-69
2023/04/27 06:26:51;;;;;;;7.35;4.15;;;6.20;99.90;;;;;;4885422;29;20052;-68
2023/04/27 06:29:17;;;;;;;9.95;4.03;;;;;;;;;;4885429;29;20112;-68
2023/04/27 06:31:43;;;;;;;5.72;3.58;;;;;;;;;;4900792;29;20099;-68
2023/04/27 06:34:09;;;;;;;7.35;4.00;;;;;;;;;;4884454;29;20052;-70
2023/04/27 06:36:35;;;;;;;9.90;3.92;;;;;;;;;;4917594;29;20048;-68
2023/04/27 06:39:01;;;;;;;4.57;3.70;;;;;;;;;;4900949;29;20075;-69
2023/04/27 06:41:27;;;;;;;10.80;3.55;;;;;;;;;;4901023;29;20079;-69
2023/04/27 06:43:54;;;;;;;5.95;3.83;;;;;;;;;;4900594;29;20044;-69
2023/04/27 06:46:20;;;;;;;6.15;3.63;;;;;;;;;;4900756;29;20052;-69
2023/04/27 06:48:46;;;;;;;8.57;3.40;;;;;;;;;;4869597;29;20489;-68
2023/04/27 06:51:12;;;;;;;6.05;3.33;;;;;;;;;;4885030;29;20044;-68
2023/04/27 06:53:41;;;;;;;5.78;3.58;;;7.30;99.90;;;;;;4917444;29;20052;-68
2023/04/27 06:56:10;;;;;;;7.63;3.80;;;6.70;99.90;;;;;;4917327;29;20054;-68
2023/04/27 06:58:36;;;;;;;8.88;3.55;;;;;;;;;;4900217;29;20059;-68
2023/04/27 07:01:03;;;;;;;6.38;3.15;;;;;;;;;;4900309;29;20083;-68
2023/04/27 07:03:30;;;;;;;4.85;3.55;;;;;;;;;;4900127;29;20052;-68
2023/04/27 07:05:58;;;;;;;6.32;3.25;;;7.50;99.90;;;;;;4900448;29;20036;-68
2023/04/27 07:08:24;;;;;;;6.53;3.03;;;;;;;;;;4900460;29;20087;-68
2023/04/27 07:10:50;;;;;;;8.80;3.20;;;;;;;;;;4900288;29;20557;-68
2023/04/27 07:13:16;;;;;;;4.80;3.35;;;;;;;;;;4900501;29;20040;-68
2023/04/27 07:15:42;;;;;;;5.32;3.40;;;;;;;;;;4900450;29;20123;-68
2023/04/27 07:18:08;;;;;;;7.13;4.05;;;;;;;;;;4900333;29;20099;-69
2023/04/27 07:20:36;;;;;;;8.15;3.15;;;6.50;99.90;;;;;;4900136;29;20374;-69
2023/04/27 07:23:02;;;;;;;5.45;3.30;;;;;;;;;;4900096;29;20067;-69
2023/04/27 07:25:29;;;;;;;5.15;3.28;;;;;;;;;;4884428;29;20056;-69
2023/04/27 07:27:55;;;;;;;7.90;3.40;;;;;;;;;;4900230;29;20048;-69
2023/04/27 07:30:23;;;;;;;6.95;3.53;;;;;;;;;;4900007;29;20048;-68
2023/04/27 07:32:53;;;;;;;8.02;3.17;;;;;;;;;;4899848;29;20520;-68
2023/04/27 07:35:19;;;;;;;5.47;3.30;;;;;;;;;;4884496;29;20481;-68
2023/04/27 07:37:45;;;;;;;4.35;3.25;;;;;;;;;;4916881;29;20044;-68
2023/04/27 07:40:15;;;;;;;13.10;3.67;;;8.00;99.90;;;;;;4899962;29;20493;-69
2023/04/27 07:42:41;;;;;;;6.90;3.08;;;;;;;;;;4899990;29;20044;-69
2023/04/27 07:45:10;;;;;;;8.45;3.50;;;7.70;99.90;;;;;;4917951;29;20052;-69
2023/04/27 07:47:37;;;;;;;5.38;3.30;;;;;;;;;;4903652;29;20051;-69
2023/04/27 07:50:07;;;;;;;5.43;3.45;;;8.30;99.90;;;;;;4889468;29;20050;-69
2023/04/27 07:52:33;;;;;;;6.80;3.78;;;;;;;;;;4903485;29;20426;-69
2023/04/27 07:54:59;;;;;;;5.95;3.85;;;;;;;;;;4903514;29;20135;-69
2023/04/27 07:57:25;;;;;;;9.20;4.10;;;;;;;;;;4903596;29;20040;-69
2023/04/27 07:59:51;;;;;;;5.20;3.38;;;;;;;;;;4903754;29;20047;-69
2023/04/27 08:02:17;;;;;;;6.50;4.03;;;;;;;;;;4903690;29;20048;-69
2023/04/27 08:04:43;;;;;;;5.47;3.42;;;;;;;;;;4903201;29;20051;-69
2023/04/27 08:07:10;;;;;;;5.85;4.32;;;;;;;;;;4903480;29;20107;-69
2023/04/27 08:09:36;;;;;;;7.35;3.38;;;;;;;;;;4903363;29;20119;-69
2023/04/27 08:12:02;;;;;;;8.90;3.20;;;;;;;;;;4903649;29;20044;-70
2023/04/27 08:14:28;;;;;;;4.30;3.15;;;;;;;;;;4903458;29;20055;-70
2023/04/27 08:16:55;;;;;;;7.57;3.55;;;;;;;;;;4903093;29;20080;-69
2023/04/27 08:19:21;;;;;;;4.85;3.20;;;;;;;;;;4903431;29;20076;-69
2023/04/27 08:21:47;;;;;;;4.85;2.70;;;;;;;;;;4902914;29;20047;-70
2023/04/27 08:24:13;;;;;;;10.40;3.67;;;;;;;;;;4887846;29;20044;-69
2023/04/27 08:26:40;;;;;;;4.55;2.90;;;;;;;;;;4919955;29;20557;-69
2023/04/27 08:29:07;;;;;;;7.75;2.90;;;;;;;;;;4903111;29;20044;-69
2023/04/27 08:31:33;;;;;;;4.35;2.80;;;;;;;;;;4920074;29;20084;-69
2023/04/27 08:33:59;;;;;;;8.18;2.95;;;;;;;;;;4902911;29;20048;-69
2023/04/27 08:36:26;;;;;;;8.77;3.00;;;;;;;;;;4902888;29;20044;-69
2023/04/27 08:38:52;;;;;;;4.93;2.80;;;;;;;;;;4903196;29;20052;-70
2023/04/27 08:41:20;;;;;;;6.28;2.90;;;9.40;99.90;;;;;;4902730;29;20048;-70
2023/04/27 08:43:50;;;;;;;5.80;2.80;;;9.50;99.90;;;;;;4902764;29;20111;-70
2023/04/27 08:46:23;;;;;;;6.75;2.83;;;9.40;99.90;;;;;;4902736;29;20044;-70
2023/04/27 08:48:50;;;;;;;6.38;2.90;;;;;;;;;;4902776;29;20484;-70
2023/04/27 08:51:16;;;;;;;4.47;2.60;;;;;;;;;;4902926;29;20507;-69
2023/04/27 08:53:53;;;;;;;5.32;3.03;;;9.70;99.90;;;;;;4902654;29;20168;-69
2023/04/27 08:56:27;;;;;;;4.60;2.83;;;9.70;99.90;;;;;;4901828;29;20389;-69
2023/04/27 08:58:54;;;;;;;9.10;2.65;;;9.90;99.90;;;;;;4919279;29;20496;-69
2023/04/27 09:01:20;;;;;;;5.65;2.78;;;;;;;;;;4902345;29;20489;-69
2023/04/27 09:03:47;;;;;;;5.03;2.50;;;;;;;;;;4902266;29;20063;-70
2023/04/27 09:06:13;;;;;;;4.65;2.80;;;9.80;99.90;;;;;;4902587;29;20395;-69
2023/04/27 09:08:44;;;;;;;8.15;3.05;;;;;;;;;;4902526;29;20094;-70
2023/04/27 09:11:11;;;;;;;5.88;2.80;;;;;;;;;;4919496;29;20131;-70
2023/04/27 09:13:38;;;;;;;4.78;2.70;;;10.20;99.90;;;;;;4919196;29;20110;-69
2023/04/27 09:16:04;;;;;;;7.82;2.92;;;;;;;;;;4887129;29;20082;-69
2023/04/27 09:18:34;;;;;;;5.07;3.03;;;10.30;99.90;;;;;;4886970;29;20063;-69
2023/04/27 09:21:00;;;;;;;6.78;2.65;;;;;;;;;;4902086;29;20044;-69
2023/04/27 09:23:26;;;;;;;4.85;2.70;;;;;;;;;;4901578;29;20093;-69
2023/04/27 09:25:54;;;;;;;7.07;2.80;;;;;;;;;;4902128;29;20044;-69
2023/04/27 09:28:21;;;;;;;8.10;2.85;;;;;;;;;;4901898;29;20401;-70
2023/04/27 09:30:54;;;;;;;4.28;2.78;;;10.40;99.90;;;;;;4901756;29;20044;-70
2023/04/27 09:33:24;;;;;;;4.82;2.70;;;;;;;;;;4901926;29;20055;-69
2023/04/27 09:35:50;;;;;;;3.45;2.78;;;;;;;;;;4901802;29;20044;-69
2023/04/27 09:38:18;;;;;;;5.90;3.25;;;10.80;99.90;;;;;;4918648;29;20119;-69
2023/04/27 09:40:44;;;;;;;3.42;2.53;;;;;;;;;;4901896;29;20044;-69
2023/04/27 09:43:10;;;;;;;4.25;2.75;;;;;;;;;;4901643;29;20055;-69
2023/04/27 09:45:37;;;;;;;6.15;3.65;;;11.00;99.90;;;;;;4885970;29;20043;-69
2023/04/27 09:48:04;;;;;;;5.05;2.70;;;;;;;;;;4901560;29;20099;-70
2023/04/27 09:50:31;;;;;;;6.15;3.17;;;;;;;;;;4901459;29;20044;-69
2023/04/27 09:52:57;;;;;;;8.77;3.10;;;;;;;;;;4918250;29;20047;-69
2023/04/27 09:55:36;;;;;;;7.10;2.88;;;11.50;99.90;;;;;;4918407;29;20044;-69
2023/04/27 09:58:02;;;;;;;6.32;3.20;;;;;;;;;;4901207;29;20083;-70
2023/04/27 10:00:48;;;;;;;5.70;2.67;;;;;;;;;;4901369;29;20063;-69
2023/04/27 10:03:23;;;;;;;7.40;3.08;;;;;;;;;;4901275;29;20056;-70
2023/04/27 10:06:27;;;;;;;6.60;3.40;;;11.70;99.90;;;;;;4885895;29;20048;-70
2023/04/27 10:08:54;;;;;;;7.05;3.00;;;;;;;;;;4885432;29;20044;-69
2023/04/27 10:11:20;;;;;;;8.45;3.10;;;;;;;;;;4918051;29;20052;-69
2023/04/27 10:13:53;;;;;;;5.28;2.70;;;;;;;;;;4900937;29;20040;-69
2023/04/27 10:16:20;;;;;;;3.95;3.00;;;;;;;;;;4870188;29;20126;-69
2023/04/27 10:18:53;;;;;;;6.82;3.05;;;;;;;;;;4901034;29;20501;-69
2023/04/27 10:21:19;;;;;;;5.80;2.92;;;;;;;;;;4885127;29;20076;-69
2023/04/27 10:23:47;;;;;;;5.28;2.90;;;;;;;;;;4917551;29;20445;-69
2023/04/27 10:26:13;;;;;;;5.22;3.13;;;;;;;;;;4900697;29;20087;-69
2023/04/27 10:28:40;;;;;;;4.22;3.10;;;;;;;;;;4900543;29;20051;-69
2023/04/27 10:31:10;;;;;;;7.22;3.17;;;12.20;99.90;;;;;;4885515;29;20052;-69
2023/04/27 10:33:42;;;;;;;6.85;3.13;;;;;;;;;;4900601;29;20513;-69
2023/04/27 10:36:14;;;;;;;10.43;3.43;;;12.10;99.90;;;;;;4917543;29;20190;-69
2023/04/27 10:38:40;;;;;;;10.00;4.57;;;;;;;;;;4917518;29;20796;-69
2023/04/27 10:41:13;;;;;;;6.82;2.78;;;12.30;99.90;;;;;;4885312;29;20143;-69
2023/04/27 10:43:39;;;;;;;8.13;3.13;;;;;;;;;;4900594;29;20131;-69
2023/04/27 10:46:13;;;;;;;5.90;3.05;;;12.30;99.90;;;;;;4900785;29;20119;-69
2023/04/27 10:48:40;;;;;;;10.15;3.00;;;;;;;;;;4900406;29;20060;-69
2023/04/27 10:51:06;;;;;;;7.53;3.00;;;;;;;;;;4917537;29;20477;-69
2023/04/27 10:53:36;;;;;;;7.82;3.13;;;13.10;99.90;;;;;;4900604;29;20127;-69
2023/04/27 10:56:05;;;;;;;7.15;2.90;;;;;;;;;;4900564;29;20134;-68
2023/04/27 10:58:31;;;;;;;4.50;2.97;;;;;;;;;;4900599;29;20123;-69
2023/04/27 11:00:57;;;;;;;5.40;3.00;;;;;;;;;;4917227;29;20127;-69
2023/04/27 11:03:24;;;;;;;6.13;3.45;;;;;;;;;;4900285;29;20044;-69
2023/04/27 11:06:04;;;;;;;11.65;3.85;;;12.20;99.90;;;;;;4900066;29;20048;-69
2023/04/27 11:08:35;;;;;;;6.97;4.00;;;;;;;;;;4899981;29;20044;-69
2023/04/27 11:11:01;;;;;;;7.55;3.78;;;;;;;;;;4900601;29;20084;-68
2023/04/27 11:13:27;;;;;;;6.53;3.22;;;;;;;;;;4916975;29;20434;-69
2023/04/27 11:15:55;;;;;;;9.10;3.40;;;12.50;99.90;;;;;;4901002;29;20040;-69
2023/04/27 11:18:23;;;;;;;5.18;3.13;;;12.50;99.90;;;;;;4899998;29;20048;-69
2023/04/27 11:21:04;;;;;;;11.13;3.92;;;12.50;99.90;;;;;;4883929;29;20095;-69
2023/04/27 11:23:37;;;;;;;9.80;3.53;;;;;;;;;;4900004;29;20060;-69
2023/04/27 11:26:17;;;;;;;9.07;4.20;;;12.40;99.90;;;;;;4900029;29;20056;-69
2023/04/27 11:28:44;;;;;;;6.97;3.90;;;;;;;;;;4900239;29;20473;-69
2023/04/27 11:31:10;;;;;;;5.53;3.67;;;;;;;;;;4884535;29;20151;-69
2023/04/27 11:33:38;;;;;;;11.52;3.90;;;;;;;;;;4900284;29;20130;-70
2023/04/27 11:36:15;;;;;;;9.40;3.47;;;;;;;;;;4900163;29;20044;-70
2023/04/27 11:38:41;;;;;;;7.57;3.88;;;11.70;99.90;;;;;;4900088;29;20047;-69
2023/04/27 11:41:07;;;;;;;6.55;3.40;;;;;;;;;;4917081;29;20051;-70
2023/04/27 11:43:34;;;;;;;5.93;3.47;;;;;;;;;;4900011;29;20433;-70
2023/04/27 11:46:04;;;;;;;7.72;3.40;;;;;;;;;;4884179;29;20099;-69
2023/04/27 11:48:30;;;;;;;8.10;3.80;;;;;;;;;;4900053;29;20032;-69
2023/04/27 11:51:00;;;;;;;8.40;3.25;;;;;;;;;;4884109;29;20055;-69
2023/04/27 11:53:34;;;;;;;4.35;3.20;;;;;;;;;;4899970;29;20056;-69
2023/04/27 11:56:09;;;;;;;7.60;3.35;;;11.60;99.90;;;;;;4899703;29;20052;-68
2023/04/27 11:58:36;;;;;;;11.82;3.67;;;11.60;99.90;;;;;;4916557;29;20120;-68
2023/04/27 12:01:06;;;;;;;9.48;3.78;;;11.50;99.90;;;;;;4899650;29;20040;-68
2023/04/27 12:03:32;;;;;;;6.70;3.85;;;;;;;;;;4899481;29;20048;-68
2023/04/27 12:05:58;;;;;;;9.55;3.17;;;;;;;;;;4899887;29;20099;-68
2023/04/27 12:08:25;;;;;;;10.70;4.90;;;;;;;;;;4916547;29;20516;-68
2023/04/27 12:10:51;;;;;;;8.05;3.80;;;;;;;;;;4916956;29;20108;-68
2023/04/27 12:13:17;;;;;;;8.65;3.80;;;;;;;;;;4900012;29;20052;-68
2023/04/27 12:15:43;;;;;;;10.00;3.95;;;;;;;;;;4899795;29;20079;-69
2023/04/27 12:18:09;;;;;;;7.90;3.88;;;12.50;99.90;;;;;;4899877;29;20094;-69
2023/04/27 12:20:35;;;;;;;5.65;3.70;;;;;;;;;;4884112;29;20466;-69
2023/04/27 12:23:01;;;;;;;14.85;3.80;;;;;;;;;;4899419;29;20059;-70
2023/04/27 12:25:28;;;;;;;9.02;3.55;;;;;;;;;;4883972;29;20131;-70
2023/04/27 12:27:54;;;;;;;9.68;3.75;;;;;;;;;;4916518;29;20064;-70
2023/04/27 12:30:23;;;;;;;9.10;3.53;;;;;;;;;;4899539;29;20044;-70
2023/04/27 12:32:50;;;;;;;9.70;4.07;;;;;;;;;;4901500;29;20047;-70
2023/04/27 12:35:16;;;;;;;6.60;3.58;;;;;;;;;;4919746;29;20056;-69
2023/04/27 12:37:42;;;;;;;7.05;3.38;;;;;;;;;;4902552;29;20048;-70
2023/04/27 12:40:08;;;;;;;5.53;3.45;;;;;;;;;;4902939;29;20070;-69
2023/04/27 12:42:35;;;;;;;7.15;3.72;;;;;;;;;;4902747;29;20131;-70
2023/04/27 12:45:01;;;;;;;9.30;3.85;;;;;;;;;;4902646;29;20047;-68
2023/04/27 12:47:27;;;;;;;7.72;3.90;;;;;;;;;;4919551;29;20397;-68
2023/04/27 12:49:53;;;;;;;7.55;3.97;;;;;;;;;;4887226;29;20044;-68
2023/04/27 12:52:19;;;;;;;6.15;3.55;;;;;;;;;;4902584;29;20040;-68
2023/04/27 12:54:46;;;;;;;7.68;4.20;;;;;;;;;;4919673;29;20075;-68
2023/04/27 12:57:12;;;;;;;8.98;3.70;;;;;;;;;;4886699;29;20060;-68
2023/04/27 12:59:38;;;;;;;11.10;3.75;;;;;;;;;;4886897;29;20044;-68
2023/04/27 13:02:05;;;;;;;5.00;3.60;;;;;;;;;;4902308;29;20079;-68
2023/04/27 13:04:31;;;;;;;7.35;3.80;;;;;;;;;;4902190;29;20138;-68
2023/04/27 13:06:59;;;;;;;6.40;3.50;;;;;;;;;;4887023;29;20039;-68
2023/04/27 13:09:26;;;;;;;8.10;3.72;;;;;;;;;;4902191;29;20048;-68
2023/04/27 13:11:53;;;;;;;6.10;3.40;;;;;;;;;;4919234;29;20044;-68
2023/04/27 13:14:19;;;;;;;9.45;3.58;;;;;;;;;;4886684;29;20521;-69
2023/04/27 13:16:45;;;;;;;8.02;3.15;;;;;;;;;;4902285;29;20447;-69
2023/04/27 13:19:11;;;;;;;6.70;3.45;;;12.70;99.90;;;;;;4886483;29;20052;-69
2023/04/27 13:21:37;;;;;;;6.40;3.45;;;12.80;99.90;;;;;;4886529;29;20055;-69
2023/04/27 13:24:03;;;;;;;9.77;4.00;;;;;;;;;;4901883;29;20052;-69
2023/04/27 13:26:30;;;;;;;5.10;3.65;;;;;;;;;;4901902;29;20048;-69
2023/04/27 13:28:56;;;;;;;7.45;3.47;;;;;;;;;;4886188;29;20409;-69
2023/04/27 13:31:23;;;;;;;5.57;3.70;;;;;;;;;;4901698;29;20071;-69
2023/04/27 13:33:49;;;;;;;8.93;3.30;;;;;;;;;;4918740;29;20060;-69
2023/04/27 13:36:15;;;;;;;5.20;3.05;;;;;;;;;;4901601;29;20411;-69
2023/04/27 13:38:41;;;;;;;6.53;3.22;;;;;;;;;;4901699;29;20036;-70
2023/04/27 13:41:07;;;;;;;5.90;3.50;;;;;;;;;;4901823;29;20051;-70
2023/04/27 13:43:33;;;;;;;6.70;3.38;;;;;;;;;;4901036;29;20123;-70
2023/04/27 13:46:01;;;;;;;6.80;4.43;;;;;;;;;;4918696;29;20412;-70
2023/04/27 13:48:27;;;;;;;10.40;3.80;;;;;;;;;;4901544;29;20051;-70
2023/04/27 13:50:57;;;;;;;8.40;3.72;;;;;;;;;;4901567;29;20048;-70
2023/04/27 13:53:26;;;;;;;6.75;3.60;;;;;;;;;;4885852;29;20095;-70
2023/04/27 13:55:58;;;;;;;8.18;3.40;;;;;;;;;;4918255;29;20381;-70
2023/04/27 13:58:24;;;;;;;8.05;3.80;;;;;;;;;;4885934;29;20091;-70
2023/04/27 14:00:51;;;;;;;9.65;3.90;;;;;;;;;;4901441;29;20044;-70
2023/04/27 14:03:18;;;;;;;8.32;4.50;;;;;;;;;;4918108;29;20481;-69
2023/04/27 14:05:44;;;;;;;6.30;3.30;;;;;;;;;;4901030;29;20051;-69
2023/04/27 14:08:10;;;;;;;6.97;4.20;;;11.50;99.90;;;;;;4901346;29;20036;-69
2023/04/27 14:10:37;;;;;;;7.53;3.83;;;11.30;99.90;;;;;;4901126;29;20115;-69
2023/04/27 14:13:03;;;;;;;6.22;3.70;;;;;;;;;;4917998;29;20481;-69
2023/04/27 14:15:30;;;;;;;5.78;3.88;;;;;;;;;;4900828;29;20059;-69
2023/04/27 14:17:56;;;;;;;7.25;3.75;;;;;;;;;;4901121;29;20054;-69
2023/04/27 14:20:23;;;;;;;7.70;3.97;;;;;;;;;;4900801;29;20044;-69
2023/04/27 14:22:49;;;;;;;6.43;3.80;;;;;;;;;;4900658;29;20527;-69